Hauptseite
METAR-TAF:

METAR-TAF

Flughäfen :

Penn Valley Airport

Selinsgrove, Pennsylvania, Vereinigte Staaten

Breite: 40-49-09N, Länge: 076-51-58W, Höhe: 137 m

Beobachtung

Neuester Wetterbericht von vor 1 Stunde und 10 Minuten, um 19:53 UTC
Wind 12 kt aus Nord/Nordost
Temperatur 8°C
Luftfeuchtigkeit 81%
Luftdruck 1012 hPa
Sichtweite: 16.1 km
Geschlossene Wolkendecke in der Höhe von 5000 ft
Leichtregen

METAR: KSEG 031953Z AUTO 02012KT 10SM -RA OVC050 08/05 A2987 RMK AO2 SLP117 P0005 T00830050

Zeit: 17:03 (21:03 UTC)


TAF: fehlend

Wetterbeobachtungen und Prognosen von mehr als 4000 Flughäfen (METAR und TAF Bericht).

Die verfügbaren Stationen werden durch gelbe und rote Markierungen auf der Karte dargestellt.

Führen Sie die Maus auf sie, um den Namen der Station zu sehen.

Darauf klicken, um die Beobachtung von Wetterbeobachtungen und Prognosen zu sehen.

Um die Karte zu ändern : klicken Sie auf den grünen Tasten mit einem schwarzen Kreuz Zum Vergrößern, auf den grünen Button mit einem Gedankenstrich zu verkleinern, oder auf die grünen Pfeile für benachbarte Karten.


METAR-TAF: